PAYA/YAK METAR and TAF weather

Enter ICAO airport designator
Station Type Date Time Source
PAYA METAR 2019/10/15 03:53 UTC NOAA

PAYA 150353Z AUTO 06011KT 10SM BKN110 09/M06 A2941 RMK AO2 SLP960 T00891061 TSNO


Station Type Date Time Source
PAYA Decoded METAR 2019/10/15 03:53 UTC NOAA

YAKUTAT AIRPORT, AK, United States (PAYA) 59-30N 139-40W 9M
Oct 14, 2019 - 11:53 PM EDT / 2019.10.15 0353 UTC
Wind: from the ENE (060 degrees) at 13 MPH (11 KT):0
Visibility: 10 mile(s):0
Sky conditions: mostly cloudy
Temperature: 48.0 F (8.9 C)
Dew Point: 21.0 F (-6.1 C)
Relative Humidity: 34%
Pressure (altimeter): 29.41 in. Hg (995 hPa)
ob: PAYA 150353Z AUTO 06011KT 10SM BKN110 09/M06 A2941 RMK AO2 SLP960 T00891061 TSNO
cycle: 4

Station Type Date Time Source
PAYA TAF 2019/10/14 18:27 UTC NOAA

TAF PAYA 141724Z 1418/1518 VRB04KT P6SM SKC
FM150600 07010KT P6SM BKN070 OVC100 WS020/07040KT
AMD LTD TO CLD VIS AND WIND

Example: see airport list